createdAt,value
2022-12-09T00:01:24.192Z,2.80
2022-12-09T00:03:51.123Z,2.45
2022-12-09T00:06:24.738Z,3.03
2022-12-09T00:11:18.902Z,3.35
2022-12-09T00:13:52.346Z,3.08
2022-12-09T00:18:46.308Z,2.60
2022-12-09T00:21:24.164Z,1.83
2022-12-09T00:23:51.356Z,2.50
2022-12-09T00:26:18.790Z,2.47
2022-12-09T00:28:45.693Z,2.50
2022-12-09T00:31:17.411Z,1.90
2022-12-09T00:33:44.540Z,2.63
2022-12-09T00:36:14.571Z,2.50
2022-12-09T00:38:41.605Z,2.10
2022-12-09T00:41:08.468Z,2.45
2022-12-09T00:43:35.300Z,2.33
2022-12-09T00:46:02.475Z,1.95
2022-12-09T00:48:29.361Z,2.50
2022-12-09T00:50:56.444Z,1.90
2022-12-09T00:53:23.210Z,2.30
2022-12-09T00:55:50.498Z,2.97
2022-12-09T00:58:17.317Z,2.30
2022-12-09T01:00:44.139Z,2.28
2022-12-09T01:03:13.883Z,2.17
2022-12-09T01:05:41.280Z,2.10
2022-12-09T01:08:08.364Z,2.10
2022-12-09T01:10:35.452Z,2.63
2022-12-09T01:13:02.455Z,2.15
2022-12-09T01:15:29.504Z,2.00
2022-12-09T01:17:56.307Z,2.17
2022-12-09T01:20:23.175Z,2.60
2022-12-09T01:22:49.962Z,2.33
2022-12-09T01:25:16.664Z,1.70
2022-12-09T01:27:43.640Z,2.30
2022-12-09T01:30:12.047Z,2.30
2022-12-09T01:32:39.254Z,1.80
2022-12-09T01:35:06.338Z,1.98
2022-12-09T01:37:33.682Z,2.45
2022-12-09T01:40:00.939Z,2.30
2022-12-09T01:42:27.692Z,1.98
2022-12-09T01:45:33.397Z,1.83
2022-12-09T01:48:11.631Z,2.15
2022-12-09T01:50:39.491Z,2.13
2022-12-09T01:53:06.780Z,1.80
2022-12-09T01:55:33.996Z,2.13
2022-12-09T01:58:00.904Z,1.83
2022-12-09T02:00:27.597Z,2.03
2022-12-09T02:02:54.717Z,2.20
2022-12-09T02:05:21.860Z,2.00
2022-12-09T02:07:48.905Z,1.77
2022-12-09T02:10:16.146Z,1.98
2022-12-09T02:12:55.242Z,2.10
2022-12-09T02:15:24.319Z,2.25
2022-12-09T02:18:00.271Z,2.40
2022-12-09T02:20:54.889Z,2.13
2022-12-09T02:23:26.258Z,2.15
2022-12-09T02:25:58.060Z,2.03
2022-12-09T02:29:06.835Z,2.50
2022-12-09T02:31:36.499Z,1.92
2022-12-09T02:34:22.299Z,2.10
2022-12-09T02:37:10.458Z,2.53
2022-12-09T02:39:42.229Z,2.00
2022-12-09T02:42:09.927Z,2.28
2022-12-09T02:44:37.510Z,1.73
2022-12-09T02:47:04.989Z,2.47
2022-12-09T02:49:31.921Z,2.60
2022-12-09T02:51:59.399Z,3.75
2022-12-09T02:54:26.834Z,2.00
2022-12-09T02:56:57.846Z,2.30
2022-12-09T02:59:24.621Z,2.25
2022-12-09T03:02:02.484Z,1.73
2022-12-09T03:04:29.858Z,2.15
2022-12-09T03:06:58.676Z,1.85
2022-12-09T03:09:34.268Z,2.00
2022-12-09T03:12:03.926Z,2.03
2022-12-09T03:14:37.791Z,2.22
2022-12-09T03:17:20.294Z,2.05
2022-12-09T03:19:55.005Z,2.13
2022-12-09T03:22:24.835Z,2.42
2022-12-09T03:25:01.704Z,2.00
2022-12-09T03:27:44.308Z,1.85
2022-12-09T03:30:12.122Z,1.60
2022-12-09T03:32:39.310Z,1.80
2022-12-09T03:35:12.148Z,2.15
2022-12-09T03:37:39.425Z,2.53
2022-12-09T03:40:13.602Z,1.77
2022-12-09T03:42:44.825Z,1.73
2022-12-09T03:45:12.259Z,1.83
2022-12-09T03:47:39.140Z,1.90
2022-12-09T03:50:07.023Z,2.00
2022-12-09T03:52:42.206Z,1.55
2022-12-09T03:55:23.841Z,2.00
2022-12-09T03:57:53.299Z,2.10
2022-12-09T04:00:20.346Z,1.70
2022-12-09T04:02:48.409Z,1.73
2022-12-09T04:05:15.465Z,1.88
2022-12-09T04:07:42.589Z,1.65
2022-12-09T04:10:10.138Z,1.85
2022-12-09T04:12:37.515Z,1.83
2022-12-09T04:15:04.681Z,1.55
2022-12-09T04:17:31.492Z,1.83
2022-12-09T04:19:58.220Z,1.73
2022-12-09T04:22:25.003Z,1.40
2022-12-09T04:24:51.884Z,2.00
2022-12-09T04:27:18.989Z,1.83
2022-12-09T04:29:45.799Z,2.25
2022-12-09T04:32:12.848Z,1.70
2022-12-09T04:34:40.168Z,1.73
2022-12-09T04:37:06.931Z,1.73
2022-12-09T04:39:33.788Z,1.60
2022-12-09T04:42:00.541Z,1.73
2022-12-09T04:44:27.380Z,2.10
2022-12-09T04:46:54.363Z,2.10
2022-12-09T04:49:21.231Z,1.60
2022-12-09T04:51:48.502Z,2.20
2022-12-09T04:54:15.378Z,1.70
2022-12-09T04:56:42.509Z,2.00
2022-12-09T04:59:09.449Z,1.77
2022-12-09T05:01:36.563Z,2.15
2022-12-09T05:04:03.778Z,1.42
2022-12-09T05:06:31.322Z,1.95
2022-12-09T05:08:58.282Z,1.63
2022-12-09T05:11:25.928Z,2.03
2022-12-09T05:13:56.011Z,2.00
2022-12-09T05:16:23.269Z,1.70
2022-12-09T05:18:50.650Z,2.55
2022-12-09T05:21:19.357Z,2.08
2022-12-09T05:23:46.576Z,2.28
2022-12-09T05:26:15.363Z,1.98
2022-12-09T05:28:42.343Z,1.80
2022-12-09T05:31:15.496Z,2.20
2022-12-09T05:33:43.238Z,1.83
2022-12-09T05:36:15.118Z,2.08
2022-12-09T05:38:42.360Z,2.00
2022-12-09T05:41:09.200Z,2.00
2022-12-09T05:43:37.097Z,2.08
2022-12-09T05:46:04.921Z,2.00
2022-12-09T05:48:31.864Z,2.00
2022-12-09T05:51:00.040Z,1.80
2022-12-09T05:53:27.140Z,2.00
2022-12-09T05:55:54.196Z,2.22
2022-12-09T05:58:21.155Z,2.20
2022-12-09T06:00:48.439Z,2.38
2022-12-09T06:03:15.403Z,2.30
2022-12-09T06:05:42.528Z,1.95
2022-12-09T06:08:09.921Z,1.80
2022-12-09T06:10:40.224Z,1.67
2022-12-09T06:13:07.371Z,1.75
2022-12-09T06:15:35.099Z,2.20
2022-12-09T06:18:02.346Z,1.83
2022-12-09T06:20:29.870Z,2.05
2022-12-09T06:22:56.976Z,1.70
2022-12-09T06:25:24.006Z,2.10
2022-12-09T06:27:51.977Z,1.90
2022-12-09T06:30:19.077Z,2.03
2022-12-09T06:32:46.069Z,2.00
2022-12-09T06:35:13.647Z,1.98
2022-12-09T06:37:41.026Z,2.20
2022-12-09T06:40:08.635Z,1.92
2022-12-09T06:42:35.560Z,2.35
2022-12-09T06:45:02.627Z,2.80
2022-12-09T06:47:29.769Z,2.90
2022-12-09T06:50:04.367Z,2.90
2022-12-09T06:52:33.653Z,3.28
2022-12-09T06:55:00.895Z,3.00
2022-12-09T06:57:28.291Z,3.35
2022-12-09T06:59:55.663Z,2.72
2022-12-09T07:02:22.815Z,3.13
2022-12-09T07:04:54.305Z,2.75
2022-12-09T07:07:21.429Z,2.90
2022-12-09T07:09:48.818Z,2.50
2022-12-09T07:12:16.028Z,2.42
2022-12-09T07:14:43.065Z,2.47
2022-12-09T07:17:18.706Z,3.05
2022-12-09T07:19:46.574Z,2.25
2022-12-09T07:22:13.958Z,2.63
2022-12-09T07:24:40.761Z,2.60
2022-12-09T07:27:11.841Z,2.95
2022-12-09T07:32:11.655Z,3.45
2022-12-09T07:34:38.910Z,2.80
2022-12-09T07:37:07.156Z,3.83
2022-12-09T07:39:34.187Z,3.75
2022-12-09T07:42:00.973Z,4.05
2022-12-09T07:44:28.422Z,3.60
2022-12-09T07:46:55.789Z,3.60
2022-12-09T07:49:23.261Z,3.22
2022-12-09T07:51:50.751Z,3.75
2022-12-09T07:54:19.106Z,3.30
2022-12-09T07:56:46.291Z,3.30
2022-12-09T07:59:13.734Z,3.33
2022-12-09T08:01:40.825Z,2.90
2022-12-09T08:04:08.346Z,3.17
2022-12-09T08:06:35.831Z,3.33
2022-12-09T08:09:04.507Z,2.55
2022-12-09T08:11:32.260Z,2.63
2022-12-09T08:14:10.474Z,3.88
2022-12-09T08:16:39.166Z,3.22
2022-12-09T08:19:06.239Z,3.30
2022-12-09T08:21:33.552Z,2.67
2022-12-09T08:24:02.277Z,4.75
2022-12-09T08:26:30.798Z,4.10
2022-12-09T08:28:58.276Z,3.90
2022-12-09T08:31:26.550Z,3.70
2022-12-09T08:33:53.951Z,3.30
2022-12-09T08:36:23.121Z,2.95
2022-12-09T08:38:50.236Z,4.00
2022-12-09T08:41:17.517Z,3.38
2022-12-09T08:43:45.053Z,4.95
2022-12-09T08:46:12.774Z,4.55
2022-12-09T08:48:40.913Z,4.50
2022-12-09T08:51:09.129Z,4.53
2022-12-09T08:53:36.379Z,4.03
2022-12-09T08:56:13.132Z,4.72
2022-12-09T08:58:41.183Z,3.70
2022-12-09T09:01:13.961Z,3.90
2022-12-09T09:03:40.898Z,3.72
2022-12-09T09:06:10.801Z,4.50
2022-12-09T09:08:38.941Z,3.35
2022-12-09T09:11:14.400Z,3.03
2022-12-09T09:13:41.799Z,3.60
2022-12-09T09:16:10.628Z,2.70
2022-12-09T09:18:38.529Z,2.67
2022-12-09T09:21:06.893Z,2.80
2022-12-09T09:23:34.081Z,2.95
2022-12-09T09:26:01.155Z,3.22
2022-12-09T09:28:31.491Z,3.53
2022-12-09T09:31:00.809Z,3.92
2022-12-09T09:33:28.219Z,4.03
2022-12-09T09:35:59.112Z,4.40
2022-12-09T09:38:27.123Z,3.72
2022-12-09T09:40:54.134Z,3.97
2022-12-09T09:43:23.081Z,3.45
2022-12-09T09:45:50.623Z,3.67
2022-12-09T09:48:19.295Z,3.30
2022-12-09T09:50:53.708Z,3.83
2022-12-09T09:53:24.681Z,3.97
2022-12-09T09:56:00.698Z,4.13
2022-12-09T09:58:48.120Z,4.00
2022-12-09T10:01:16.901Z,4.65
2022-12-09T10:04:00.399Z,4.15
2022-12-09T10:06:53.213Z,3.17
2022-12-09T10:09:36.325Z,4.10
2022-12-09T10:12:23.818Z,4.57
2022-12-09T10:15:01.892Z,4.70
2022-12-09T10:17:37.467Z,4.03
2022-12-09T10:20:13.786Z,4.40
2022-12-09T10:22:50.713Z,4.43
2022-12-09T10:25:32.812Z,5.15
2022-12-09T10:28:05.134Z,3.63
2022-12-09T10:30:39.818Z,3.95
2022-12-09T10:33:13.606Z,4.10
2022-12-09T10:35:40.682Z,4.13
2022-12-09T10:38:09.856Z,4.65
2022-12-09T10:40:47.046Z,5.68
2022-12-09T10:43:35.215Z,5.55
2022-12-09T10:46:23.100Z,4.95
2022-12-09T10:48:50.514Z,5.38
2022-12-09T10:51:21.666Z,5.78
2022-12-09T10:54:01.885Z,4.90
2022-12-09T10:56:40.044Z,5.22
2022-12-09T10:59:32.093Z,6.57
2022-12-09T11:02:03.065Z,6.15
2022-12-09T11:04:31.180Z,6.90
2022-12-09T11:07:03.305Z,6.20
2022-12-09T11:09:34.959Z,6.93
2022-12-09T11:12:04.767Z,7.07
2022-12-09T11:14:42.137Z,6.13
2022-12-09T11:17:17.023Z,6.38
2022-12-09T11:20:09.649Z,6.40
2022-12-09T11:22:41.303Z,5.82
2022-12-09T11:25:21.020Z,6.05
2022-12-09T11:28:13.785Z,7.32
2022-12-09T11:31:19.811Z,6.97
2022-12-09T11:33:38.492Z,6.60
2022-12-09T11:36:09.610Z,6.65
2022-12-09T11:38:46.258Z,5.95
2022-12-09T11:41:13.006Z,5.90
2022-12-09T11:43:43.468Z,6.63
2022-12-09T11:46:13.165Z,6.13
2022-12-09T11:49:00.261Z,6.85
2022-12-09T11:51:33.016Z,6.53
2022-12-09T11:54:04.648Z,6.22
2022-12-09T11:56:31.452Z,6.18
2022-12-09T11:59:05.100Z,5.32
2022-12-09T12:04:05.435Z,8.32
2022-12-09T12:06:43.675Z,7.10
2022-12-09T12:09:18.715Z,7.55
2022-12-09T12:11:55.286Z,7.90
2022-12-09T12:14:25.917Z,7.30
2022-12-09T12:17:09.664Z,8.48
2022-12-09T12:22:09.857Z,5.97
2022-12-09T12:24:49.201Z,7.93
2022-12-09T12:27:32.047Z,6.45
2022-12-09T12:30:11.880Z,7.27
2022-12-09T12:36:09.288Z,6.95
2022-12-09T12:38:50.125Z,6.65
2022-12-09T12:41:46.896Z,7.35
2022-12-09T12:44:47.747Z,6.97
2022-12-09T12:47:24.645Z,7.82
2022-12-09T12:50:07.839Z,6.60
2022-12-09T12:55:31.995Z,7.13
2022-12-09T12:58:15.173Z,7.40
2022-12-09T13:01:00.604Z,7.38
2022-12-09T13:03:52.165Z,7.00
2022-12-09T13:06:20.462Z,6.82
2022-12-09T13:09:03.123Z,8.57
2022-12-09T13:11:33.769Z,11.35
2022-12-09T13:14:03.673Z,10.55
2022-12-09T13:16:36.739Z,9.02
2022-12-09T13:19:16.895Z,7.38
2022-12-09T13:21:46.780Z,7.68
2022-12-09T13:24:37.456Z,7.85
2022-12-09T13:27:07.534Z,7.43
2022-12-09T13:29:44.146Z,7.80
2022-12-09T13:32:20.110Z,8.02
2022-12-09T13:34:51.421Z,7.93
2022-12-09T13:37:37.054Z,8.50
2022-12-09T13:40:25.507Z,10.02
2022-12-09T13:43:06.022Z,8.27
2022-12-09T13:45:43.216Z,9.10
2022-12-09T13:48:16.907Z,8.38
2022-12-09T13:50:51.448Z,7.47
2022-12-09T13:53:20.946Z,8.52
2022-12-09T13:55:49.080Z,7.28
2022-12-09T13:58:37.412Z,8.40
2022-12-09T14:01:15.255Z,6.68
2022-12-09T14:03:56.760Z,6.13
2022-12-09T14:06:31.622Z,5.80
2022-12-09T14:09:02.531Z,5.38
2022-12-09T14:11:38.494Z,5.35
2022-12-09T14:14:23.627Z,4.50
2022-12-09T14:16:54.361Z,5.35
2022-12-09T14:19:24.114Z,7.10
2022-12-09T14:22:19.326Z,5.97
2022-12-09T14:24:49.372Z,6.95
2022-12-09T14:27:20.771Z,6.32
2022-12-09T14:29:54.528Z,6.50
2022-12-09T14:32:37.624Z,7.18
2022-12-09T14:35:12.202Z,7.35
2022-12-09T14:38:00.587Z,7.55
2022-12-09T14:40:46.390Z,6.00
2022-12-09T14:43:15.837Z,6.43
2022-12-09T14:46:02.357Z,5.60
2022-12-09T14:48:36.829Z,5.32
2022-12-09T14:51:07.479Z,8.15
2022-12-09T14:53:35.539Z,7.75
2022-12-09T14:56:03.150Z,7.55
2022-12-09T14:58:29.978Z,6.10
2022-12-09T15:01:04.870Z,6.57
2022-12-09T15:03:35.450Z,5.50
2022-12-09T15:06:27.068Z,5.50
2022-12-09T15:08:55.296Z,5.78
2022-12-09T15:11:31.549Z,5.45
2022-12-09T15:14:18.905Z,5.78
2022-12-09T15:16:49.296Z,5.43
2022-12-09T15:19:58.545Z,5.75
2022-12-09T15:22:23.430Z,5.95
2022-12-09T15:24:51.176Z,5.40
2022-12-09T15:27:20.256Z,4.55
2022-12-09T15:29:47.839Z,4.05
2022-12-09T15:32:21.805Z,4.78
2022-12-09T15:34:48.560Z,5.07
2022-12-09T15:37:15.720Z,4.47
2022-12-09T15:39:55.192Z,3.45
2022-12-09T15:42:27.139Z,3.35
2022-12-09T15:45:11.706Z,3.70
2022-12-09T15:48:07.027Z,3.50
2022-12-09T15:50:37.299Z,3.17
2022-12-09T15:53:24.656Z,3.25
2022-12-09T15:55:57.907Z,3.15
2022-12-09T15:58:30.778Z,2.55
2022-12-09T16:00:57.521Z,2.95
2022-12-09T16:03:29.741Z,2.70
2022-12-09T16:05:58.582Z,2.60
2022-12-09T16:08:35.029Z,2.70
2022-12-09T16:11:01.863Z,2.60
2022-12-09T16:13:29.122Z,2.10
2022-12-09T16:15:57.875Z,2.50
2022-12-09T16:18:49.845Z,2.33
2022-12-09T16:21:21.018Z,2.13
2022-12-09T16:23:49.917Z,3.63
2022-12-09T16:26:38.078Z,3.17
2022-12-09T16:29:07.562Z,2.75
2022-12-09T16:31:34.472Z,3.38
2022-12-09T16:34:01.185Z,4.00
2022-12-09T16:36:29.895Z,4.57
2022-12-09T16:39:08.820Z,3.67
2022-12-09T16:41:53.476Z,3.65
2022-12-09T16:44:34.115Z,3.28
2022-12-09T16:47:13.045Z,3.47
2022-12-09T16:49:40.561Z,3.45
2022-12-09T16:52:13.267Z,2.97
2022-12-09T16:54:40.568Z,2.53
2022-12-09T16:57:07.268Z,3.20
2022-12-09T16:59:38.000Z,2.83
2022-12-09T17:02:10.169Z,3.13
2022-12-09T17:04:37.374Z,2.78
2022-12-09T17:07:04.150Z,3.10
2022-12-09T17:09:30.886Z,2.88
2022-12-09T17:11:57.683Z,2.70
2022-12-09T17:14:24.337Z,3.08
2022-12-09T17:16:51.112Z,2.97
2022-12-09T17:19:18.592Z,2.53
2022-12-09T17:21:45.294Z,3.15
2022-12-09T17:24:12.130Z,3.08
2022-12-09T17:26:38.813Z,2.90
2022-12-09T17:29:07.231Z,2.80
2022-12-09T17:31:34.185Z,3.03
2022-12-09T17:34:01.470Z,2.90
2022-12-09T17:36:28.235Z,2.33
2022-12-09T17:38:55.027Z,3.25
2022-12-09T17:41:24.008Z,2.75
2022-12-09T17:43:51.033Z,2.90
2022-12-09T17:46:17.999Z,3.00
2022-12-09T17:48:44.858Z,2.30
2022-12-09T17:51:16.492Z,3.10
2022-12-09T17:53:43.439Z,2.78
2022-12-09T17:56:14.727Z,2.80
2022-12-09T17:58:41.659Z,2.60
2022-12-09T18:01:24.157Z,2.88
2022-12-09T18:04:01.630Z,2.38
2022-12-09T18:06:34.740Z,2.70
2022-12-09T18:09:02.831Z,3.25
2022-12-09T18:11:30.303Z,2.90
2022-12-09T18:13:57.190Z,2.70
2022-12-09T18:16:24.162Z,2.85
2022-12-09T18:18:51.255Z,2.70
2022-12-09T18:21:19.990Z,2.70
2022-12-09T18:23:48.196Z,3.38
2022-12-09T18:26:16.234Z,2.78
2022-12-09T18:28:43.022Z,3.28
2022-12-09T18:31:14.570Z,3.38
2022-12-09T18:33:41.655Z,3.05
2022-12-09T18:36:10.823Z,4.00
2022-12-09T18:38:38.153Z,3.15
2022-12-09T18:41:05.003Z,3.17
2022-12-09T18:43:36.851Z,3.30
2022-12-09T18:46:11.398Z,3.13
2022-12-09T18:48:38.493Z,3.72
2022-12-09T18:51:08.555Z,3.25
2022-12-09T18:53:35.307Z,3.47
2022-12-09T18:56:05.865Z,3.08
2022-12-09T18:59:04.104Z,3.42
2022-12-09T19:01:24.564Z,2.60
2022-12-09T19:03:53.372Z,3.53
2022-12-09T19:06:26.978Z,3.08
2022-12-09T19:08:56.744Z,2.88
2022-12-09T19:11:31.336Z,3.17
2022-12-09T19:13:58.585Z,3.30
2022-12-09T19:16:25.755Z,3.10
2022-12-09T19:18:53.649Z,3.58
2022-12-09T19:21:21.085Z,3.00
2022-12-09T19:23:47.919Z,3.20
2022-12-09T19:26:42.903Z,3.08
2022-12-09T19:29:10.461Z,3.20
2022-12-09T19:32:00.071Z,2.90
2022-12-09T19:34:28.186Z,3.47
2022-12-09T19:36:56.080Z,2.90
2022-12-09T19:39:24.820Z,3.35
2022-12-09T19:41:51.708Z,3.92
2022-12-09T19:44:37.300Z,3.20
2022-12-09T19:47:04.692Z,3.03
2022-12-09T19:49:31.602Z,2.90
2022-12-09T19:51:59.909Z,3.45
2022-12-09T19:54:29.029Z,3.08
2022-12-09T19:56:56.017Z,2.65
2022-12-09T19:59:22.778Z,4.00
2022-12-09T20:01:49.771Z,3.28
2022-12-09T20:04:47.594Z,4.35
2022-12-09T20:07:08.307Z,3.72
2022-12-09T20:09:36.141Z,3.70
2022-12-09T20:12:02.881Z,3.42
2022-12-09T20:14:29.592Z,3.30
2022-12-09T20:16:56.614Z,3.28
2022-12-09T20:19:23.797Z,2.75
2022-12-09T20:21:50.493Z,3.70
2022-12-09T20:24:17.279Z,3.95
2022-12-09T20:26:44.820Z,3.25
2022-12-09T20:29:11.770Z,3.55
2022-12-09T20:31:38.910Z,3.42
2022-12-09T20:34:13.445Z,3.00
2022-12-09T20:36:41.061Z,3.30
2022-12-09T20:39:12.443Z,3.25
2022-12-09T20:41:40.130Z,3.00
2022-12-09T20:44:06.915Z,3.20
2022-12-09T20:46:33.834Z,3.25
2022-12-09T20:49:00.831Z,3.30
2022-12-09T20:51:38.313Z,3.13
2022-12-09T20:54:05.845Z,3.95
2022-12-09T20:56:32.903Z,2.75
2022-12-09T20:58:59.765Z,3.72
2022-12-09T21:01:28.172Z,3.65
2022-12-09T21:03:55.337Z,2.97
2022-12-09T21:06:23.479Z,3.10
2022-12-09T21:08:51.275Z,3.83
2022-12-09T21:11:19.515Z,3.85
2022-12-09T21:13:48.936Z,3.50
2022-12-09T21:16:20.125Z,3.63
2022-12-09T21:18:50.503Z,3.15
2022-12-09T21:21:17.959Z,4.25
2022-12-09T21:23:44.739Z,3.70
2022-12-09T21:26:13.195Z,3.60
2022-12-09T21:28:40.347Z,3.05
2022-12-09T21:31:12.105Z,2.92
2022-12-09T21:33:39.324Z,2.80
2022-12-09T21:36:07.639Z,2.92
2022-12-09T21:38:35.651Z,3.33
2022-12-09T21:41:06.983Z,3.75
2022-12-09T21:43:34.061Z,3.92
2022-12-09T21:46:05.118Z,2.83
2022-12-09T21:48:32.543Z,3.05
2022-12-09T21:51:00.008Z,3.38
2022-12-09T21:53:26.845Z,3.00
2022-12-09T21:55:53.650Z,3.05
2022-12-09T21:58:22.246Z,3.22
2022-12-09T22:00:48.933Z,3.08
2022-12-09T22:03:15.683Z,3.38
2022-12-09T22:05:42.439Z,3.40
2022-12-09T22:08:10.681Z,2.83
2022-12-09T22:10:37.831Z,4.05
2022-12-09T22:13:04.670Z,2.80
2022-12-09T22:15:31.871Z,3.20
2022-12-09T22:17:58.546Z,3.05
2022-12-09T22:23:12.363Z,3.03
2022-12-09T22:25:40.229Z,3.33
2022-12-09T22:28:06.849Z,3.75
2022-12-09T22:30:36.094Z,3.25
2022-12-09T22:33:03.046Z,3.35
2022-12-09T22:35:30.115Z,3.20
2022-12-09T22:37:59.322Z,3.17
2022-12-09T22:40:26.365Z,2.88
2022-12-09T22:42:53.486Z,3.03
2022-12-09T22:45:20.141Z,2.65
2022-12-09T22:47:46.941Z,3.58
2022-12-09T22:50:13.605Z,3.08
2022-12-09T22:52:40.405Z,2.83
2022-12-09T22:55:07.731Z,2.85
2022-12-09T22:57:34.452Z,2.55
2022-12-09T23:00:01.139Z,3.08
2022-12-09T23:02:27.932Z,2.95
2022-12-09T23:04:55.074Z,2.65
2022-12-09T23:07:21.786Z,3.05
2022-12-09T23:09:48.430Z,2.90
2022-12-09T23:12:15.215Z,2.35
2022-12-09T23:14:42.391Z,2.42
2022-12-09T23:17:09.065Z,2.90
2022-12-09T23:19:35.766Z,2.35
2022-12-09T23:22:02.475Z,2.75
2022-12-09T23:24:29.141Z,2.20
2022-12-09T23:26:56.225Z,3.03
2022-12-09T23:29:23.174Z,2.67
2022-12-09T23:31:49.942Z,2.65
2022-12-09T23:34:16.751Z,2.63
2022-12-09T23:36:43.744Z,2.53
2022-12-09T23:39:15.447Z,3.10
2022-12-09T23:41:43.188Z,2.15
2022-12-09T23:44:14.853Z,2.30
2022-12-09T23:46:41.692Z,2.25
2022-12-09T23:49:08.812Z,2.42
2022-12-09T23:51:37.677Z,2.67
2022-12-09T23:54:05.565Z,1.88
2022-12-09T23:56:34.863Z,2.13
2022-12-09T23:59:03.641Z,2.17
